createdAt,value
2022-12-01T00:02:22.265Z,-14.34
2022-12-01T00:04:52.583Z,-14.36
2022-12-01T00:07:21.305Z,-14.37
2022-12-01T00:10:09.493Z,-14.39
2022-12-01T00:12:44.080Z,-14.46
2022-12-01T00:15:13.706Z,-14.51
2022-12-01T00:17:44.590Z,-14.52
2022-12-01T00:20:13.729Z,-14.52
2022-12-01T00:22:50.758Z,-14.54
2022-12-01T00:25:22.225Z,-14.55
2022-12-01T00:27:53.824Z,-14.58
2022-12-01T00:30:26.780Z,-14.61
2022-12-01T00:32:57.560Z,-14.62
2022-12-01T00:35:46.423Z,-14.63
2022-12-01T00:38:16.866Z,-14.64
2022-12-01T00:40:45.548Z,-14.65
2022-12-01T00:43:19.509Z,-14.66
2022-12-01T00:45:50.083Z,-14.65
2022-12-01T00:48:22.146Z,-14.62
2022-12-01T00:50:54.982Z,-14.60
2022-12-01T00:53:25.384Z,-14.59
2022-12-01T00:55:56.464Z,-14.60
2022-12-01T00:58:26.826Z,-14.61
2022-12-01T01:01:03.461Z,-14.61
2022-12-01T01:03:33.943Z,-14.62
2022-12-01T01:06:18.305Z,-14.64
2022-12-01T01:08:54.584Z,-14.64
2022-12-01T01:11:27.433Z,-14.62
2022-12-01T01:13:55.744Z,-14.59
2022-12-01T01:16:24.521Z,-14.53
2022-12-01T01:18:59.342Z,-14.50
2022-12-01T01:21:28.467Z,-14.47
2022-12-01T01:23:57.585Z,-14.48
2022-12-01T01:26:29.506Z,-14.46
2022-12-01T01:29:00.225Z,-14.44
2022-12-01T01:31:32.512Z,-14.45
2022-12-01T01:34:01.230Z,-14.48
2022-12-01T01:36:29.930Z,-14.52
2022-12-01T01:38:58.347Z,-14.47
2022-12-01T01:41:26.943Z,-14.42
2022-12-01T01:44:27.598Z,-14.39
2022-12-01T01:46:56.744Z,-14.34
2022-12-01T01:49:27.582Z,-14.30
2022-12-01T01:51:58.993Z,-14.29
2022-12-01T01:54:38.104Z,-14.31
2022-12-01T01:57:12.314Z,-14.31
2022-12-01T01:59:54.385Z,-14.24
2022-12-01T02:02:23.017Z,-14.19
2022-12-01T02:04:57.829Z,-14.14
2022-12-01T02:07:26.930Z,-14.08
2022-12-01T02:10:00.965Z,-14.05
2022-12-01T02:18:33.384Z,-14.07
2022-12-01T02:27:05.144Z,-14.01
2022-12-01T02:33:12.504Z,-13.94
2022-12-01T02:41:43.629Z,-13.84
2022-12-01T02:44:43.064Z,-13.83
2022-12-01T02:50:08.784Z,-13.86
2022-12-01T02:52:39.354Z,-13.87
2022-12-01T02:55:11.384Z,-13.87
2022-12-01T02:57:43.142Z,-13.84
2022-12-01T03:00:14.519Z,-13.84
2022-12-01T03:16:00.657Z,-13.73
2022-12-01T03:19:05.150Z,-13.74
2022-12-01T03:21:46.333Z,-13.74
2022-12-01T03:24:36.668Z,-13.76
2022-12-01T03:27:10.519Z,-13.75
2022-12-01T03:29:54.127Z,-13.71
2022-12-01T03:32:43.310Z,-13.69
2022-12-01T03:35:20.770Z,-13.68
2022-12-01T03:41:06.228Z,-13.65
2022-12-01T03:43:43.110Z,-13.68
2022-12-01T03:46:42.354Z,-13.67
2022-12-01T03:49:15.161Z,-13.63
2022-12-01T03:57:31.597Z,-13.65
2022-12-01T04:00:08.676Z,-13.65
2022-12-01T04:03:23.249Z,-13.70
2022-12-01T04:05:56.085Z,-13.70
2022-12-01T04:08:34.443Z,-13.71
2022-12-01T04:11:23.009Z,-13.74
2022-12-01T04:13:54.031Z,-13.74
2022-12-01T04:16:25.862Z,-13.76
2022-12-01T04:19:02.470Z,-13.79
2022-12-01T04:21:59.878Z,-13.76
2022-12-01T04:24:33.738Z,-13.78
2022-12-01T04:27:14.472Z,-13.76
2022-12-01T04:29:49.709Z,-13.74
2022-12-01T04:32:31.071Z,-13.74
2022-12-01T04:35:23.432Z,-13.74
2022-12-01T04:38:09.314Z,-13.72
2022-12-01T04:40:55.712Z,-13.72
2022-12-01T04:43:31.272Z,-13.73
2022-12-01T04:46:11.770Z,-13.73
2022-12-01T04:48:44.710Z,-13.71
2022-12-01T04:51:24.511Z,-13.71
2022-12-01T04:54:03.634Z,-13.68
2022-12-01T04:56:44.352Z,-13.72
2022-12-01T04:59:14.399Z,-13.73
2022-12-01T05:01:52.472Z,-13.73
2022-12-01T05:04:33.758Z,-13.74
2022-12-01T05:07:18.671Z,-13.78
2022-12-01T05:09:56.151Z,-13.79
2022-12-01T05:12:25.792Z,-13.76
2022-12-01T05:14:58.310Z,-13.75
2022-12-01T05:17:36.992Z,-13.71
2022-12-01T05:20:40.680Z,-13.70
2022-12-01T05:23:17.134Z,-13.68
2022-12-01T05:25:58.294Z,-13.68
2022-12-01T05:28:37.004Z,-13.70
2022-12-01T05:31:13.425Z,-13.71
2022-12-01T05:33:59.885Z,-13.72
2022-12-01T05:36:36.161Z,-13.70
2022-12-01T05:39:09.907Z,-13.69
2022-12-01T05:41:41.408Z,-13.69
2022-12-01T05:44:16.484Z,-13.69
2022-12-01T05:46:55.304Z,-13.70
2022-12-01T05:49:28.565Z,-13.71
2022-12-01T05:51:57.342Z,-13.71
2022-12-01T05:54:27.094Z,-13.72
2022-12-01T05:56:57.744Z,-13.71
2022-12-01T05:59:32.980Z,-13.73
2022-12-01T06:02:12.421Z,-13.73
2022-12-01T06:04:45.118Z,-13.72
2022-12-01T06:07:29.983Z,-13.74
2022-12-01T06:09:59.131Z,-13.73
2022-12-01T06:12:28.220Z,-13.72
2022-12-01T06:15:10.823Z,-13.71
2022-12-01T06:17:40.601Z,-13.68
2022-12-01T06:20:17.465Z,-13.66
2022-12-01T06:22:52.596Z,-13.70
2022-12-01T06:25:21.321Z,-13.71
2022-12-01T06:28:08.891Z,-13.71
2022-12-01T06:31:01.063Z,-13.67
2022-12-01T06:33:36.943Z,-13.64
2022-12-01T06:36:12.104Z,-13.58
2022-12-01T06:38:43.243Z,-13.56
2022-12-01T06:41:20.744Z,-13.54
2022-12-01T06:43:55.624Z,-13.51
2022-12-01T06:46:24.166Z,-13.45
2022-12-01T06:48:56.501Z,-13.45
2022-12-01T06:51:31.384Z,-13.43
2022-12-01T06:54:05.647Z,-13.38
2022-12-01T06:56:53.162Z,-13.32
2022-12-01T06:59:29.901Z,-13.28
2022-12-01T07:02:04.477Z,-13.23
2022-12-01T07:04:42.282Z,-13.18
2022-12-01T07:07:12.430Z,-13.16
2022-12-01T07:09:45.303Z,-13.12
2022-12-01T07:12:22.217Z,-13.09
2022-12-01T07:15:05.062Z,-13.06
2022-12-01T07:17:34.724Z,-13.06
2022-12-01T07:20:06.404Z,-13.07
2022-12-01T07:22:40.898Z,-13.02
2022-12-01T07:25:16.534Z,-13.02
2022-12-01T07:27:50.065Z,-13.05
2022-12-01T07:30:28.702Z,-13.07
2022-12-01T07:32:59.108Z,-13.06
2022-12-01T07:35:34.809Z,-13.01
2022-12-01T07:38:05.025Z,-12.92
2022-12-01T07:40:39.364Z,-12.86
2022-12-01T07:43:10.410Z,-12.75
2022-12-01T07:45:42.157Z,-12.69
2022-12-01T07:48:18.018Z,-12.69
2022-12-01T07:50:50.693Z,-12.70
2022-12-01T07:53:24.737Z,-12.75
2022-12-01T07:55:53.982Z,-12.76
2022-12-01T07:58:22.504Z,-12.76
2022-12-01T08:00:51.280Z,-12.77
2022-12-01T08:03:20.103Z,-12.77
2022-12-01T08:06:02.292Z,-12.74
2022-12-01T08:08:31.921Z,-12.67
2022-12-01T08:11:11.981Z,-12.62
2022-12-01T08:13:58.439Z,-12.57
2022-12-01T08:16:27.988Z,-12.52
2022-12-01T08:19:07.365Z,-12.50
2022-12-01T08:21:38.418Z,-12.44
2022-12-01T08:24:09.847Z,-12.40
2022-12-01T08:26:38.542Z,-12.37
2022-12-01T08:29:09.835Z,-12.37
2022-12-01T08:31:44.203Z,-12.34
2022-12-01T08:34:16.347Z,-12.27
2022-12-01T08:36:49.310Z,-12.24
2022-12-01T08:39:20.541Z,-12.24
2022-12-01T08:41:52.016Z,-12.24
2022-12-01T08:44:23.916Z,-12.22
2022-12-01T08:46:58.306Z,-12.17
2022-12-01T08:49:27.819Z,-12.16
2022-12-01T08:52:00.146Z,-12.17
2022-12-01T08:54:28.784Z,-12.13
2022-12-01T08:57:02.264Z,-12.07
2022-12-01T08:59:30.964Z,-12.07
2022-12-01T09:02:06.786Z,-12.01
2022-12-01T09:04:38.084Z,-12.00
2022-12-01T09:07:15.601Z,-11.96
2022-12-01T09:09:49.407Z,-11.90
2022-12-01T09:12:18.510Z,-11.89
2022-12-01T09:14:51.124Z,-11.89
2022-12-01T09:17:19.315Z,-11.87
2022-12-01T09:19:48.605Z,-11.85
2022-12-01T09:22:17.404Z,-11.85
2022-12-01T09:24:46.759Z,-11.83
2022-12-01T09:27:15.806Z,-11.81
2022-12-01T09:29:46.982Z,-11.78
2022-12-01T09:32:16.044Z,-11.78
2022-12-01T09:34:45.002Z,-11.76
2022-12-01T09:37:14.283Z,-11.76
2022-12-01T09:39:45.123Z,-11.74
2022-12-01T09:42:23.044Z,-11.78
2022-12-01T09:44:55.744Z,-11.77
2022-12-01T09:47:29.561Z,-11.73
2022-12-01T09:50:12.614Z,-11.72
2022-12-01T09:52:47.359Z,-11.65
2022-12-01T09:55:22.263Z,-11.54
2022-12-01T09:57:54.442Z,-11.54
2022-12-01T10:00:26.306Z,-11.44
2022-12-01T10:06:18.561Z,-11.39
2022-12-01T10:08:44.819Z,-11.35
2022-12-01T10:11:22.965Z,-11.36
2022-12-01T10:13:54.442Z,-11.32
2022-12-01T10:16:30.389Z,-11.30
2022-12-01T10:19:29.853Z,-11.24
2022-12-01T10:22:28.603Z,-11.24
2022-12-01T10:25:07.919Z,-11.17
2022-12-01T10:30:19.116Z,-11.19
2022-12-01T10:35:29.759Z,-11.10
2022-12-01T10:38:02.760Z,-11.16
2022-12-01T10:40:35.624Z,-11.15
2022-12-01T10:43:04.676Z,-11.14
2022-12-01T10:45:41.243Z,-11.13
2022-12-01T10:48:19.801Z,-11.14
2022-12-01T10:50:51.163Z,-11.17
2022-12-01T10:53:37.452Z,-11.15
2022-12-01T10:58:58.184Z,-11.07
2022-12-01T11:01:33.064Z,-11.06
2022-12-01T11:04:08.441Z,-11.02
2022-12-01T11:06:39.308Z,-11.02
2022-12-01T11:09:25.987Z,-11.04
2022-12-01T11:11:58.823Z,-10.99
2022-12-01T11:14:48.404Z,-10.98
2022-12-01T11:17:26.285Z,-10.98
2022-12-01T11:19:55.029Z,-10.94
2022-12-01T11:22:32.324Z,-10.94
2022-12-01T11:25:04.161Z,-10.91
2022-12-01T11:27:38.863Z,-10.81
2022-12-01T11:33:05.823Z,-10.69
2022-12-01T11:35:39.904Z,-10.76
2022-12-01T11:40:59.328Z,-10.81
2022-12-01T11:43:38.184Z,-10.77
2022-12-01T11:46:09.031Z,-10.73
2022-12-01T11:48:37.700Z,-10.73
2022-12-01T11:51:15.981Z,-10.72
2022-12-01T11:53:46.991Z,-10.70
2022-12-01T11:56:25.702Z,-10.70
2022-12-01T11:59:03.712Z,-10.69
2022-12-01T12:13:06.263Z,-10.77
2022-12-01T12:15:55.185Z,-10.74
2022-12-01T12:40:55.760Z,-10.70
2022-12-01T12:44:04.011Z,-10.73
2022-12-01T12:50:11.543Z,-10.69
2022-12-01T12:52:44.141Z,-10.79
2022-12-01T12:55:16.206Z,-10.82
2022-12-01T12:57:53.241Z,-10.82
2022-12-01T13:00:26.886Z,-10.90
2022-12-01T13:03:32.270Z,-10.91
2022-12-01T13:06:11.163Z,-10.91
2022-12-01T13:11:35.571Z,-10.98
2022-12-01T13:14:36.366Z,-11.00
2022-12-01T13:17:32.174Z,-11.05
2022-12-01T13:20:01.070Z,-11.16
2022-12-01T13:22:34.885Z,-11.20
2022-12-01T13:25:06.179Z,-11.23
2022-12-01T13:27:39.501Z,-11.24
2022-12-01T13:30:22.144Z,-11.24
2022-12-01T13:32:58.544Z,-11.24
2022-12-01T13:35:37.827Z,-11.26
2022-12-01T13:38:30.254Z,-11.30
2022-12-01T13:44:28.165Z,-11.39
2022-12-01T13:47:04.502Z,-11.42
2022-12-01T13:52:36.030Z,-11.49
2022-12-01T13:58:13.672Z,-11.58
2022-12-01T14:00:43.623Z,-11.62
2022-12-01T14:06:09.141Z,-11.67
2022-12-01T14:08:46.964Z,-11.69
2022-12-01T14:11:28.523Z,-11.69
2022-12-01T14:16:59.065Z,-11.73
2022-12-01T14:22:44.463Z,-11.79
2022-12-01T14:25:31.616Z,-11.83
2022-12-01T14:28:03.263Z,-11.89
2022-12-01T14:33:50.421Z,-11.98
2022-12-01T14:39:22.007Z,-12.15
2022-12-01T14:47:23.225Z,-12.25
2022-12-01T14:50:02.306Z,-12.22
2022-12-01T14:52:39.823Z,-12.29
2022-12-01T14:55:20.621Z,-12.42
2022-12-01T14:58:00.883Z,-12.43
2022-12-01T15:00:32.506Z,-12.38
2022-12-01T15:03:09.409Z,-12.34
2022-12-01T15:05:41.568Z,-12.30
2022-12-01T15:11:26.542Z,-12.24
2022-12-01T15:14:01.150Z,-12.22
2022-12-01T15:16:35.256Z,-12.21
2022-12-01T15:19:04.224Z,-12.21
2022-12-01T15:21:36.886Z,-12.23
2022-12-01T15:24:07.122Z,-12.22
2022-12-01T15:26:49.149Z,-12.21
2022-12-01T15:32:04.176Z,-12.20
2022-12-01T15:34:44.941Z,-12.21
2022-12-01T15:37:15.584Z,-12.22
2022-12-01T15:39:49.904Z,-12.23
2022-12-01T15:42:33.004Z,-12.25
2022-12-01T15:48:00.189Z,-12.36
2022-12-01T15:50:44.699Z,-12.53
2022-12-01T15:56:11.223Z,-12.67
2022-12-01T15:58:48.983Z,-12.63
2022-12-01T16:01:21.571Z,-12.56
2022-12-01T16:03:52.424Z,-12.49
2022-12-01T16:06:23.292Z,-12.52
2022-12-01T16:09:05.120Z,-12.57
2022-12-01T16:11:36.561Z,-12.56
2022-12-01T16:14:22.183Z,-12.54
2022-12-01T16:16:53.062Z,-12.54
2022-12-01T16:19:27.673Z,-12.49
2022-12-01T16:24:52.646Z,-12.44
2022-12-01T16:27:38.880Z,-12.56
2022-12-01T16:30:23.533Z,-12.63
2022-12-01T16:32:52.323Z,-12.63
2022-12-01T16:35:31.383Z,-12.59
2022-12-01T16:38:01.196Z,-12.59
2022-12-01T16:40:32.898Z,-12.64
2022-12-01T16:43:02.423Z,-12.68
2022-12-01T16:45:33.409Z,-12.70
2022-12-01T16:48:07.754Z,-12.70
2022-12-01T16:50:41.148Z,-12.63
2022-12-01T16:53:13.925Z,-12.63
2022-12-01T16:55:52.604Z,-12.53
2022-12-01T16:58:26.233Z,-12.51
2022-12-01T17:01:00.176Z,-12.51
2022-12-01T17:03:34.384Z,-12.51
2022-12-01T17:06:05.013Z,-12.46
2022-12-01T17:08:38.138Z,-12.46
2022-12-01T17:11:09.897Z,-12.46
2022-12-01T17:13:39.510Z,-12.53
2022-12-01T17:16:18.309Z,-12.63
2022-12-01T17:18:47.598Z,-12.61
2022-12-01T17:21:16.211Z,-12.64
2022-12-01T17:23:51.227Z,-12.68
2022-12-01T17:26:25.856Z,-12.64
2022-12-01T17:28:57.028Z,-12.59
2022-12-01T17:31:25.726Z,-12.56
2022-12-01T17:33:54.321Z,-12.57
2022-12-01T17:36:24.958Z,-12.55
2022-12-01T17:38:53.458Z,-12.52
2022-12-01T17:41:26.059Z,-12.49
2022-12-01T17:43:54.425Z,-12.44
2022-12-01T17:46:27.016Z,-12.40
2022-12-01T17:49:03.912Z,-12.36
2022-12-01T17:51:35.137Z,-12.38
2022-12-01T17:54:07.614Z,-12.44
2022-12-01T17:56:36.015Z,-12.47
2022-12-01T17:59:04.720Z,-12.45
2022-12-01T18:01:33.531Z,-12.42
2022-12-01T18:04:02.205Z,-12.39
2022-12-01T18:06:31.181Z,-12.36
2022-12-01T18:09:08.315Z,-12.35
2022-12-01T18:11:37.215Z,-12.36
2022-12-01T18:14:06.109Z,-12.36
2022-12-01T18:16:37.476Z,-12.34
2022-12-01T18:19:06.357Z,-12.35
2022-12-01T18:21:36.541Z,-12.38
2022-12-01T18:24:11.176Z,-12.40
2022-12-01T18:26:42.178Z,-12.42
2022-12-01T18:29:28.585Z,-12.48
2022-12-01T18:32:04.785Z,-12.46
2022-12-01T18:34:36.427Z,-12.41
2022-12-01T18:37:07.395Z,-12.36
2022-12-01T18:39:35.841Z,-12.34
2022-12-01T18:42:04.781Z,-12.31
2022-12-01T18:44:35.068Z,-12.31
2022-12-01T18:47:04.865Z,-12.32
2022-12-01T18:49:34.599Z,-12.32
2022-12-01T18:52:05.515Z,-12.34
2022-12-01T18:54:34.142Z,-12.33
2022-12-01T18:57:02.960Z,-12.34
2022-12-01T18:59:31.565Z,-12.37
2022-12-01T19:02:00.280Z,-12.50
2022-12-01T19:04:29.364Z,-12.50
2022-12-01T19:06:58.212Z,-12.45
2022-12-01T19:09:32.449Z,-12.42
2022-12-01T19:12:01.307Z,-12.52
2022-12-01T19:14:29.981Z,-12.59
2022-12-01T19:17:01.881Z,-12.56
2022-12-01T19:19:37.787Z,-12.56
2022-12-01T19:22:11.338Z,-12.43
2022-12-01T19:24:50.324Z,-12.37
2022-12-01T19:27:20.171Z,-12.34
2022-12-01T19:29:52.922Z,-12.34
2022-12-01T19:32:24.116Z,-12.36
2022-12-01T19:34:52.660Z,-12.39
2022-12-01T19:37:24.485Z,-12.47
2022-12-01T19:39:55.998Z,-12.47
2022-12-01T19:42:34.117Z,-12.47
2022-12-01T19:45:07.931Z,-12.57
2022-12-01T19:47:39.615Z,-12.57
2022-12-01T19:50:14.280Z,-12.51
2022-12-01T19:52:44.105Z,-12.51
2022-12-01T19:55:17.327Z,-12.48
2022-12-01T19:57:46.017Z,-12.51
2022-12-01T20:00:26.379Z,-12.65
2022-12-01T20:02:55.400Z,-12.65
2022-12-01T20:05:23.915Z,-12.62
2022-12-01T20:07:56.890Z,-12.61
2022-12-01T20:10:31.496Z,-12.57
2022-12-01T20:13:04.773Z,-12.53
2022-12-01T20:15:35.872Z,-12.53
2022-12-01T20:18:06.381Z,-12.53
2022-12-01T20:20:40.147Z,-12.53
2022-12-01T20:23:11.238Z,-12.77
2022-12-01T20:25:40.034Z,-12.82
2022-12-01T20:28:08.959Z,-12.79
2022-12-01T20:30:43.160Z,-12.73
2022-12-01T20:33:14.718Z,-12.70
2022-12-01T20:35:48.319Z,-12.70
2022-12-01T20:38:27.275Z,-12.68
2022-12-01T20:40:59.102Z,-12.71
2022-12-01T20:43:29.218Z,-12.75
2022-12-01T20:49:13.581Z,-12.71
2022-12-01T20:51:45.560Z,-12.77
2022-12-01T20:54:28.697Z,-12.78
2022-12-01T20:57:01.085Z,-12.79
2022-12-01T20:59:32.622Z,-12.81
2022-12-01T21:02:14.228Z,-12.84
2022-12-01T21:04:45.817Z,-12.83
2022-12-01T21:07:14.830Z,-12.88
2022-12-01T21:09:49.117Z,-12.97
2022-12-01T21:12:38.085Z,-12.99
2022-12-01T21:15:26.178Z,-13.00
2022-12-01T21:18:12.400Z,-13.23
2022-12-01T21:20:47.047Z,-13.20
2022-12-01T21:23:17.605Z,-13.13
2022-12-01T21:25:51.923Z,-13.17
2022-12-01T21:28:28.066Z,-13.13
2022-12-01T21:31:15.789Z,-13.11
2022-12-01T21:33:47.789Z,-13.11
2022-12-01T21:36:20.697Z,-13.19
2022-12-01T21:38:55.008Z,-13.22
2022-12-01T21:41:29.638Z,-13.18
2022-12-01T21:44:06.896Z,-13.12
2022-12-01T21:46:38.696Z,-13.07
2022-12-01T21:49:21.535Z,-13.05
2022-12-01T21:51:56.227Z,-13.06
2022-12-01T21:54:26.960Z,-13.06
2022-12-01T21:56:58.678Z,-13.02
2022-12-01T21:59:29.798Z,-13.01
2022-12-01T22:01:58.832Z,-13.09
2022-12-01T22:04:32.060Z,-13.13
2022-12-01T22:07:07.124Z,-13.12
2022-12-01T22:09:45.188Z,-13.09
2022-12-01T22:14:52.128Z,-13.11
2022-12-01T22:17:22.689Z,-13.12
2022-12-01T22:22:38.146Z,-13.26
2022-12-01T22:25:31.185Z,-13.30
2022-12-01T22:28:00.683Z,-13.34
2022-12-01T22:30:32.505Z,-13.31
2022-12-01T22:33:04.656Z,-13.24
2022-12-01T22:35:45.466Z,-13.22
2022-12-01T22:38:38.815Z,-13.19
2022-12-01T22:43:50.937Z,-13.17
2022-12-01T22:46:40.516Z,-13.13
2022-12-01T22:49:21.096Z,-13.15
2022-12-01T22:51:55.647Z,-13.19
2022-12-01T22:54:29.325Z,-13.27
2022-12-01T22:57:15.024Z,-13.36
2022-12-01T22:59:47.400Z,-13.44
2022-12-01T23:05:02.338Z,-13.42
2022-12-01T23:10:35.721Z,-13.33
2022-12-01T23:13:17.507Z,-13.27
2022-12-01T23:15:47.803Z,-13.24
2022-12-01T23:21:06.006Z,-13.41
2022-12-01T23:23:42.655Z,-13.43
2022-12-01T23:26:21.526Z,-13.45
2022-12-01T23:28:52.046Z,-13.41
2022-12-01T23:31:25.341Z,-13.39
2022-12-01T23:34:17.645Z,-13.37
2022-12-01T23:36:53.726Z,-13.36
2022-12-01T23:39:35.619Z,-13.33
2022-12-01T23:42:16.056Z,-13.38
2022-12-01T23:44:50.796Z,-13.38
2022-12-01T23:47:27.662Z,-13.43
2022-12-01T23:50:10.434Z,-13.46
2022-12-01T23:52:43.720Z,-13.47
2022-12-01T23:55:25.382Z,-13.49
2022-12-01T23:58:16.396Z,-13.44
